createdAt,value
2022-12-07T00:00:25.968Z,25.88
2022-12-07T00:01:12.941Z,31.27
2022-12-07T00:01:47.038Z,26.83
2022-12-07T00:02:18.989Z,26.58
2022-12-07T00:02:50.903Z,23.45
2022-12-07T00:03:22.927Z,25.60
2022-12-07T00:04:06.859Z,28.23
2022-12-07T00:04:38.815Z,26.37
2022-12-07T00:05:10.647Z,26.60
2022-12-07T00:05:42.495Z,26.77
2022-12-07T00:06:16.602Z,27.50
2022-12-07T00:06:53.749Z,26.75
2022-12-07T00:07:27.937Z,25.67
2022-12-07T00:08:00.001Z,27.23
2022-12-07T00:08:33.684Z,23.85
2022-12-07T00:09:07.181Z,24.92
2022-12-07T00:09:39.951Z,30.88
2022-12-07T00:10:11.800Z,31.15
2022-12-07T00:10:43.641Z,23.40
2022-12-07T00:11:18.962Z,30.48
2022-12-07T00:11:52.229Z,28.45
2022-12-07T00:12:24.081Z,27.40
2022-12-07T00:12:55.918Z,30.80
2022-12-07T00:13:27.735Z,26.42
2022-12-07T00:14:02.313Z,28.05
2022-12-07T00:14:34.319Z,29.15
2022-12-07T00:15:06.781Z,29.45
2022-12-07T00:15:38.705Z,28.67
2022-12-07T00:16:18.775Z,29.05
2022-12-07T00:16:52.264Z,30.48
2022-12-07T00:17:24.154Z,29.12
2022-12-07T00:17:55.990Z,28.77
2022-12-07T00:18:27.896Z,30.90
2022-12-07T00:19:00.728Z,31.27
2022-12-07T00:19:32.612Z,26.98
2022-12-07T00:20:05.117Z,28.17
2022-12-07T00:20:37.107Z,26.65
2022-12-07T00:21:18.007Z,27.60
2022-12-07T00:21:50.298Z,26.02
2022-12-07T00:22:22.109Z,30.50
2022-12-07T00:22:53.979Z,23.23
2022-12-07T00:23:25.834Z,26.20
2022-12-07T00:23:58.194Z,24.87
2022-12-07T00:24:30.040Z,26.65
2022-12-07T00:25:01.891Z,23.08
2022-12-07T00:25:33.721Z,26.25
2022-12-07T00:26:17.373Z,29.67
2022-12-07T00:26:49.329Z,25.58
2022-12-07T00:27:21.490Z,25.85
2022-12-07T00:27:56.573Z,28.55
2022-12-07T00:28:28.454Z,28.10
2022-12-07T00:29:03.131Z,27.30
2022-12-07T00:29:34.994Z,29.20
2022-12-07T00:30:07.525Z,25.75
2022-12-07T00:30:39.438Z,24.85
2022-12-07T00:31:13.063Z,24.60
2022-12-07T00:31:44.938Z,23.25
2022-12-07T00:32:16.970Z,25.02
2022-12-07T00:32:49.129Z,26.75
2022-12-07T00:33:20.960Z,23.25
2022-12-07T00:33:52.843Z,24.10
2022-12-07T00:34:24.723Z,25.55
2022-12-07T00:34:56.552Z,23.75
2022-12-07T00:35:28.427Z,24.35
2022-12-07T00:36:01.179Z,27.73
2022-12-07T00:36:33.218Z,24.45
2022-12-07T00:37:05.074Z,26.83
2022-12-07T00:37:36.962Z,22.58
2022-12-07T00:38:09.181Z,27.98
2022-12-07T00:38:41.737Z,23.05
2022-12-07T00:39:13.924Z,27.37
2022-12-07T00:39:47.252Z,23.85
2022-12-07T00:40:19.098Z,20.70
2022-12-07T00:41:05.393Z,25.27
2022-12-07T00:41:37.268Z,22.37
2022-12-07T00:42:09.182Z,22.35
2022-12-07T00:42:41.037Z,22.87
2022-12-07T00:43:13.207Z,23.38
2022-12-07T00:43:46.639Z,20.48
2022-12-07T00:44:18.495Z,20.90
2022-12-07T00:44:50.348Z,25.02
2022-12-07T00:45:22.202Z,27.23
2022-12-07T00:45:54.889Z,21.98
2022-12-07T00:46:27.758Z,21.85
2022-12-07T00:46:59.656Z,20.58
2022-12-07T00:47:31.561Z,22.10
2022-12-07T00:48:03.560Z,21.70
2022-12-07T00:48:35.891Z,23.00
2022-12-07T00:49:07.724Z,17.87
2022-12-07T00:49:39.541Z,23.42
2022-12-07T00:50:11.484Z,22.27
2022-12-07T00:50:43.380Z,22.52
2022-12-07T00:51:17.033Z,21.62
2022-12-07T00:51:52.018Z,19.83
2022-12-07T00:52:23.855Z,20.00
2022-12-07T00:52:55.716Z,20.50
2022-12-07T00:53:28.088Z,20.95
2022-12-07T00:54:00.239Z,20.67
2022-12-07T00:54:32.076Z,23.23
2022-12-07T00:55:04.160Z,21.27
2022-12-07T00:55:36.929Z,24.27
2022-12-07T00:56:11.030Z,22.95
2022-12-07T00:56:42.950Z,25.10
2022-12-07T00:57:14.774Z,23.65
2022-12-07T00:57:46.609Z,23.42
2022-12-07T00:58:18.502Z,20.73
2022-12-07T00:58:54.921Z,22.77
2022-12-07T00:59:27.047Z,21.23
2022-12-07T00:59:59.330Z,23.23
2022-12-07T01:00:31.638Z,22.37
2022-12-07T01:01:06.153Z,22.50
2022-12-07T01:01:38.254Z,24.33
2022-12-07T01:02:10.153Z,21.12
2022-12-07T01:02:42.284Z,21.23
2022-12-07T01:03:16.101Z,20.67
2022-12-07T01:03:48.067Z,25.15
2022-12-07T01:04:19.917Z,28.87
2022-12-07T01:04:52.066Z,23.12
2022-12-07T01:05:23.887Z,23.38
2022-12-07T01:05:56.422Z,21.10
2022-12-07T01:06:29.114Z,22.98
2022-12-07T01:07:00.964Z,19.58
2022-12-07T01:07:32.857Z,24.80
2022-12-07T01:08:05.412Z,21.08
2022-12-07T01:08:37.305Z,20.17
2022-12-07T01:09:09.205Z,24.77
2022-12-07T01:09:41.032Z,21.52
2022-12-07T01:10:14.217Z,21.37
2022-12-07T01:10:46.605Z,22.95
2022-12-07T01:11:20.995Z,21.15
2022-12-07T01:11:52.843Z,21.58
2022-12-07T01:12:24.734Z,21.27
2022-12-07T01:12:56.715Z,19.52
2022-12-07T01:13:29.429Z,22.70
2022-12-07T01:14:02.350Z,22.87
2022-12-07T01:14:34.188Z,22.40
2022-12-07T01:15:06.851Z,30.50
2022-12-07T01:15:43.464Z,20.62
2022-12-07T01:16:17.023Z,26.52
2022-12-07T01:16:48.988Z,21.77
2022-12-07T01:17:20.928Z,30.17
2022-12-07T01:17:52.860Z,23.05
2022-12-07T01:18:24.674Z,24.20
2022-12-07T01:18:58.506Z,22.20
2022-12-07T01:19:30.513Z,24.25
2022-12-07T01:20:03.116Z,20.02
2022-12-07T01:20:35.680Z,22.15
2022-12-07T01:21:16.593Z,21.52
2022-12-07T01:21:48.449Z,24.00
2022-12-07T01:22:20.313Z,24.60
2022-12-07T01:22:52.103Z,22.10
2022-12-07T01:23:23.969Z,24.52
2022-12-07T01:23:57.780Z,22.55
2022-12-07T01:24:29.706Z,25.83
2022-12-07T01:25:01.529Z,25.62
2022-12-07T01:25:33.356Z,22.73
2022-12-07T01:26:08.303Z,21.12
2022-12-07T01:26:40.572Z,26.60
2022-12-07T01:27:12.431Z,27.27
2022-12-07T01:27:44.328Z,21.10
2022-12-07T01:28:16.148Z,25.65
2022-12-07T01:28:48.816Z,25.92
2022-12-07T01:29:20.732Z,23.85
2022-12-07T01:29:52.548Z,25.73
2022-12-07T01:30:24.485Z,29.77
2022-12-07T01:31:01.726Z,22.25
2022-12-07T01:31:33.942Z,22.35
2022-12-07T01:32:06.692Z,26.35
2022-12-07T01:32:38.537Z,27.55
2022-12-07T01:33:10.378Z,25.20
2022-12-07T01:33:43.721Z,29.27
2022-12-07T01:34:15.658Z,29.37
2022-12-07T01:34:49.528Z,30.23
2022-12-07T01:35:21.463Z,24.52
2022-12-07T01:35:53.474Z,25.27
2022-12-07T01:36:29.003Z,29.98
2022-12-07T01:37:00.873Z,25.30
2022-12-07T01:37:39.815Z,29.33
2022-12-07T01:38:11.646Z,25.42
2022-12-07T01:38:44.078Z,31.02
2022-12-07T01:39:15.934Z,35.45
2022-12-07T01:39:50.864Z,28.90
2022-12-07T01:40:22.698Z,28.52
2022-12-07T01:40:57.390Z,28.62
2022-12-07T01:41:32.876Z,25.15
2022-12-07T01:42:04.827Z,24.35
2022-12-07T01:42:37.015Z,27.02
2022-12-07T01:43:20.145Z,26.45
2022-12-07T01:44:13.468Z,27.23
2022-12-07T01:45:19.044Z,26.23
2022-12-07T01:45:51.225Z,24.65
2022-12-07T01:46:23.157Z,24.95
2022-12-07T01:47:01.011Z,25.05
2022-12-07T01:47:32.919Z,26.48
2022-12-07T01:48:07.023Z,25.75
2022-12-07T01:48:42.589Z,27.58
2022-12-07T01:49:24.211Z,25.80
2022-12-07T01:49:56.035Z,25.62
2022-12-07T01:50:32.792Z,26.87
2022-12-07T01:51:12.293Z,26.40
2022-12-07T01:51:46.896Z,27.13
2022-12-07T01:52:24.260Z,26.48
2022-12-07T01:53:00.698Z,26.00
2022-12-07T01:53:36.387Z,36.70
2022-12-07T01:54:09.568Z,27.65
2022-12-07T01:54:43.047Z,28.33
2022-12-07T01:55:16.135Z,31.73
2022-12-07T01:55:52.993Z,29.08
2022-12-07T01:56:28.161Z,28.50
2022-12-07T01:57:00.592Z,33.33
2022-12-07T01:57:35.110Z,40.80
2022-12-07T01:58:07.730Z,38.03
2022-12-07T01:58:40.066Z,38.42
2022-12-07T01:59:11.953Z,37.67
2022-12-07T01:59:50.011Z,33.22
2022-12-07T02:00:22.025Z,38.75
2022-12-07T02:00:54.181Z,33.35
2022-12-07T02:01:26.080Z,34.47
2022-12-07T02:01:58.175Z,29.87
2022-12-07T02:02:38.185Z,31.65
2022-12-07T02:03:19.907Z,33.78
2022-12-07T02:03:52.243Z,34.35
2022-12-07T02:04:24.948Z,32.70
2022-12-07T02:04:58.210Z,31.52
2022-12-07T02:05:30.563Z,34.90
2022-12-07T02:06:03.328Z,32.58
2022-12-07T02:06:37.733Z,35.40
2022-12-07T02:07:09.668Z,30.73
2022-12-07T02:07:41.978Z,28.67
2022-12-07T02:08:15.239Z,31.73
2022-12-07T02:08:47.576Z,31.55
2022-12-07T02:09:19.410Z,28.23
2022-12-07T02:09:51.241Z,26.70
2022-12-07T02:10:29.155Z,29.52
2022-12-07T02:11:05.716Z,27.98
2022-12-07T02:11:37.952Z,26.20
2022-12-07T02:12:09.810Z,26.80
2022-12-07T02:12:41.929Z,28.85
2022-12-07T02:13:16.472Z,28.23
2022-12-07T02:13:49.014Z,26.98
2022-12-07T02:14:20.860Z,28.35
2022-12-07T02:14:53.444Z,28.65
2022-12-07T02:15:57.694Z,31.95
2022-12-07T02:17:03.245Z,30.75
2022-12-07T02:18:03.823Z,23.77
2022-12-07T02:18:53.894Z,24.10
2022-12-07T02:19:44.479Z,26.02
2022-12-07T02:20:34.177Z,25.83
2022-12-07T02:21:27.221Z,28.23
2022-12-07T02:22:23.777Z,24.00
2022-12-07T02:23:16.833Z,31.52
2022-12-07T02:23:48.632Z,32.63
2022-12-07T02:24:26.153Z,27.87
2022-12-07T02:25:16.509Z,31.50
2022-12-07T02:26:15.916Z,30.42
2022-12-07T02:27:09.309Z,32.50
2022-12-07T02:28:08.178Z,31.20
2022-12-07T02:28:46.330Z,36.35
2022-12-07T02:29:28.948Z,31.40
2022-12-07T02:30:09.461Z,31.42
2022-12-07T02:30:48.379Z,35.00
2022-12-07T02:31:24.037Z,32.83
2022-12-07T02:32:22.371Z,31.67
2022-12-07T02:33:05.580Z,33.92
2022-12-07T02:34:10.853Z,29.17
2022-12-07T02:35:23.090Z,29.90
2022-12-07T02:36:21.222Z,31.00
2022-12-07T02:37:01.564Z,33.20
2022-12-07T02:37:38.883Z,33.45
2022-12-07T02:38:22.057Z,26.15
2022-12-07T02:39:05.820Z,31.83
2022-12-07T02:39:55.858Z,30.90
2022-12-07T02:41:00.640Z,31.58
2022-12-07T02:41:37.379Z,30.20
2022-12-07T02:42:17.676Z,28.15
2022-12-07T02:42:56.534Z,25.45
2022-12-07T02:43:32.403Z,28.02
2022-12-07T02:44:16.677Z,27.87
2022-12-07T02:44:49.048Z,23.95
2022-12-07T02:45:23.342Z,25.83
2022-12-07T02:46:02.688Z,26.20
2022-12-07T02:46:42.703Z,25.65
2022-12-07T02:47:18.468Z,25.92
2022-12-07T02:47:54.009Z,26.55
2022-12-07T02:48:27.171Z,22.65
2022-12-07T02:49:02.409Z,24.12
2022-12-07T02:49:34.747Z,27.40
2022-12-07T02:50:07.435Z,27.45
2022-12-07T02:50:39.245Z,27.00
2022-12-07T02:51:11.426Z,25.12
2022-12-07T02:51:46.698Z,26.60
2022-12-07T02:52:18.565Z,26.77
2022-12-07T02:52:50.482Z,30.48
2022-12-07T02:53:36.503Z,29.55
2022-12-07T02:54:14.453Z,26.90
2022-12-07T02:54:46.285Z,28.75
2022-12-07T02:55:24.131Z,26.08
2022-12-07T02:55:56.457Z,23.62
2022-12-07T02:57:07.004Z,28.30
2022-12-07T02:57:56.612Z,26.98
2022-12-07T02:58:56.156Z,24.85
2022-12-07T02:59:36.755Z,24.23
2022-12-07T03:00:18.849Z,29.65
2022-12-07T03:01:09.287Z,27.15
2022-12-07T03:02:14.669Z,37.63
2022-12-07T03:02:52.233Z,30.23
2022-12-07T03:03:25.165Z,30.90
2022-12-07T03:04:19.620Z,28.83
2022-12-07T03:05:13.265Z,30.35
2022-12-07T03:05:45.279Z,24.85
2022-12-07T03:06:29.324Z,28.50
2022-12-07T03:07:12.166Z,30.92
2022-12-07T03:08:07.240Z,30.98
2022-12-07T03:08:52.038Z,28.95
2022-12-07T03:09:36.805Z,28.75
2022-12-07T03:10:24.060Z,27.92
2022-12-07T03:11:06.019Z,26.30
2022-12-07T03:11:55.855Z,31.10
2022-12-07T03:12:38.058Z,26.83
2022-12-07T03:13:24.929Z,27.42
2022-12-07T03:14:06.190Z,26.85
2022-12-07T03:14:46.364Z,29.63
2022-12-07T03:15:34.664Z,26.70
2022-12-07T03:16:06.773Z,26.80
2022-12-07T03:16:49.127Z,29.90
2022-12-07T03:17:26.605Z,32.00
2022-12-07T03:18:01.839Z,35.50
2022-12-07T03:18:52.052Z,29.52
2022-12-07T03:19:26.125Z,25.45
2022-12-07T03:20:02.453Z,30.45
2022-12-07T03:20:38.242Z,31.23
2022-12-07T03:21:15.003Z,33.92
2022-12-07T03:22:01.116Z,30.70
2022-12-07T03:22:35.266Z,33.38
2022-12-07T03:23:10.829Z,33.13
2022-12-07T03:23:45.141Z,29.33
2022-12-07T03:24:22.085Z,31.65
2022-12-07T03:24:58.198Z,28.92
2022-12-07T03:25:30.639Z,36.38
2022-12-07T03:26:04.514Z,28.38
2022-12-07T03:26:40.032Z,34.90
2022-12-07T03:27:17.462Z,34.38
2022-12-07T03:27:56.882Z,31.65
2022-12-07T03:28:35.976Z,35.53
2022-12-07T03:29:12.903Z,34.17
2022-12-07T03:29:50.322Z,34.95
2022-12-07T03:30:28.429Z,34.47
2022-12-07T03:31:00.236Z,32.72
2022-12-07T03:31:39.719Z,33.20
2022-12-07T03:32:26.694Z,33.65
2022-12-07T03:33:06.187Z,37.13
2022-12-07T03:33:47.070Z,35.17
2022-12-07T03:34:25.789Z,33.47
2022-12-07T03:35:07.356Z,31.77
2022-12-07T03:35:44.318Z,34.92
2022-12-07T03:36:36.196Z,36.28
2022-12-07T03:37:20.489Z,32.58
2022-12-07T03:38:17.065Z,29.65
2022-12-07T03:38:56.904Z,34.97
2022-12-07T03:39:38.784Z,30.15
2022-12-07T03:40:35.097Z,30.83
2022-12-07T03:41:15.855Z,30.10
2022-12-07T03:42:19.625Z,34.03
2022-12-07T03:42:52.980Z,29.90
2022-12-07T03:43:24.976Z,34.05
2022-12-07T03:43:57.976Z,30.02
2022-12-07T03:44:30.063Z,31.02
2022-12-07T03:45:04.926Z,34.42
2022-12-07T03:46:07.603Z,35.70
2022-12-07T03:46:54.231Z,29.08
2022-12-07T03:47:59.992Z,35.65
2022-12-07T03:48:31.756Z,28.70
2022-12-07T03:49:14.125Z,29.30
2022-12-07T03:49:51.995Z,32.25
2022-12-07T03:50:32.239Z,37.28
2022-12-07T03:51:22.635Z,27.87
2022-12-07T03:52:03.414Z,31.45
2022-12-07T03:53:28.541Z,28.67
2022-12-07T03:54:09.280Z,27.65
2022-12-07T03:54:53.367Z,31.35
2022-12-07T03:55:32.118Z,28.20
2022-12-07T03:56:04.695Z,29.75
2022-12-07T03:56:37.327Z,30.45
2022-12-07T03:57:10.512Z,31.02
2022-12-07T03:57:45.860Z,27.58
2022-12-07T03:58:20.179Z,26.50
2022-12-07T03:58:53.350Z,26.20
2022-12-07T03:59:26.569Z,28.98
2022-12-07T03:59:59.535Z,32.08
2022-12-07T04:00:31.885Z,30.40
2022-12-07T04:01:04.321Z,28.42
2022-12-07T04:01:36.262Z,32.13
2022-12-07T04:02:08.836Z,31.67
2022-12-07T04:02:41.947Z,29.58
2022-12-07T04:03:13.855Z,33.75
2022-12-07T04:03:45.760Z,34.15
2022-12-07T04:04:18.512Z,28.42
2022-12-07T04:04:50.666Z,33.00
2022-12-07T04:05:23.336Z,33.78
2022-12-07T04:05:55.456Z,31.62
2022-12-07T04:06:27.591Z,24.65
2022-12-07T04:06:59.487Z,25.85
2022-12-07T04:07:31.481Z,27.02
2022-12-07T04:08:03.589Z,28.85
2022-12-07T04:08:35.503Z,35.92
2022-12-07T04:09:07.801Z,37.08
2022-12-07T04:09:40.296Z,42.65
2022-12-07T04:10:12.551Z,36.08
2022-12-07T04:10:44.377Z,39.35
2022-12-07T04:11:16.227Z,36.78
2022-12-07T04:11:48.583Z,33.97
2022-12-07T04:12:20.437Z,34.05
2022-12-07T04:12:52.330Z,37.50
2022-12-07T04:13:24.224Z,36.25
2022-12-07T04:14:14.613Z,34.42
2022-12-07T04:14:46.428Z,34.50
2022-12-07T04:15:18.294Z,32.70
2022-12-07T04:15:50.245Z,28.67
2022-12-07T04:16:22.236Z,29.92
2022-12-07T04:16:59.247Z,33.40
2022-12-07T04:17:31.074Z,31.02
2022-12-07T04:18:03.048Z,28.73
2022-12-07T04:18:34.861Z,29.10
2022-12-07T04:19:06.678Z,29.55
2022-12-07T04:19:38.551Z,28.73
2022-12-07T04:20:11.111Z,29.87
2022-12-07T04:20:42.930Z,31.10
2022-12-07T04:21:14.766Z,31.85
2022-12-07T04:21:47.219Z,32.17
2022-12-07T04:22:19.338Z,30.62
2022-12-07T04:22:51.163Z,31.50
2022-12-07T04:23:22.998Z,32.90
2022-12-07T04:23:54.850Z,25.75
2022-12-07T04:24:27.612Z,29.42
2022-12-07T04:24:59.463Z,32.45
2022-12-07T04:25:31.315Z,32.05
2022-12-07T04:26:03.532Z,29.80
2022-12-07T04:26:35.401Z,30.48
2022-12-07T04:27:07.265Z,26.30
2022-12-07T04:27:39.456Z,28.12
2022-12-07T04:28:11.398Z,28.75
2022-12-07T04:28:43.378Z,28.48
2022-12-07T04:29:16.314Z,26.50
2022-12-07T04:29:48.190Z,30.52
2022-12-07T04:30:19.998Z,29.35
2022-12-07T04:30:51.819Z,32.80
2022-12-07T04:31:23.872Z,33.58
2022-12-07T04:31:55.892Z,32.50
2022-12-07T04:32:27.778Z,32.60
2022-12-07T04:33:00.002Z,32.60
2022-12-07T04:33:31.831Z,31.45
2022-12-07T04:34:04.527Z,31.65
2022-12-07T04:34:36.528Z,31.55
2022-12-07T04:35:09.110Z,29.95
2022-12-07T04:35:43.168Z,30.17
2022-12-07T04:36:15.103Z,27.27
2022-12-07T04:36:48.062Z,29.02
2022-12-07T04:37:19.942Z,28.85
2022-12-07T04:37:51.790Z,31.67
2022-12-07T04:38:24.117Z,36.10
2022-12-07T04:38:56.356Z,28.65
2022-12-07T04:39:29.338Z,30.55
2022-12-07T04:40:01.543Z,29.92
2022-12-07T04:40:33.625Z,29.77
2022-12-07T04:41:09.964Z,34.30
2022-12-07T04:41:41.784Z,30.37
2022-12-07T04:42:16.369Z,31.45
2022-12-07T04:42:48.206Z,32.15
2022-12-07T04:43:20.046Z,28.17
2022-12-07T04:43:52.204Z,34.17
2022-12-07T04:44:25.946Z,31.30
2022-12-07T04:44:57.749Z,29.73
2022-12-07T04:45:29.604Z,29.58
2022-12-07T04:46:01.657Z,29.00
2022-12-07T04:46:33.786Z,30.55
2022-12-07T04:47:05.809Z,28.85
2022-12-07T04:47:37.713Z,33.53
2022-12-07T04:48:09.546Z,27.95
2022-12-07T04:48:41.407Z,29.12
2022-12-07T04:49:14.796Z,28.58
2022-12-07T04:49:46.698Z,30.48
2022-12-07T04:50:18.710Z,32.13
2022-12-07T04:50:51.013Z,31.17
2022-12-07T04:51:28.458Z,31.35
2022-12-07T04:52:00.501Z,29.10
2022-12-07T04:52:32.352Z,31.00
2022-12-07T04:53:04.187Z,27.95
2022-12-07T04:53:36.044Z,28.77
2022-12-07T04:54:08.203Z,29.05
2022-12-07T04:54:40.391Z,29.30
2022-12-07T04:55:12.226Z,27.30
2022-12-07T04:55:45.591Z,30.83
2022-12-07T04:56:18.358Z,28.92
2022-12-07T04:56:50.355Z,30.10
2022-12-07T04:57:22.196Z,28.95
2022-12-07T04:57:54.022Z,32.30
2022-12-07T04:58:25.998Z,28.77
2022-12-07T04:58:57.868Z,31.62
2022-12-07T04:59:29.890Z,30.77
2022-12-07T05:00:02.567Z,29.98
2022-12-07T05:00:35.047Z,28.83
2022-12-07T05:01:06.986Z,29.65
2022-12-07T05:01:39.201Z,28.65
2022-12-07T05:02:11.063Z,30.60
2022-12-07T05:02:42.989Z,27.45
2022-12-07T05:03:14.837Z,26.40
2022-12-07T05:03:46.870Z,34.25
2022-12-07T05:04:19.062Z,29.10
2022-12-07T05:04:50.909Z,28.20
2022-12-07T05:05:23.092Z,31.17
2022-12-07T05:05:54.974Z,31.50
2022-12-07T05:06:27.080Z,31.52
2022-12-07T05:06:58.930Z,27.17
2022-12-07T05:07:30.769Z,29.17
2022-12-07T05:08:02.636Z,29.27
2022-12-07T05:08:35.574Z,31.40
2022-12-07T05:09:07.506Z,26.95
2022-12-07T05:09:39.411Z,32.28
2022-12-07T05:10:11.839Z,28.48
2022-12-07T05:10:43.971Z,29.90
2022-12-07T05:11:34.940Z,29.92
2022-12-07T05:12:06.805Z,29.37
2022-12-07T05:12:38.709Z,33.20
2022-12-07T05:13:10.548Z,32.47
2022-12-07T05:13:42.465Z,37.08
2022-12-07T05:14:19.828Z,27.27
2022-12-07T05:14:51.669Z,28.55
2022-12-07T05:15:23.459Z,27.67
2022-12-07T05:15:55.786Z,28.42
2022-12-07T05:16:27.929Z,32.83
2022-12-07T05:16:59.941Z,34.00
2022-12-07T05:17:31.823Z,29.55
2022-12-07T05:18:04.519Z,32.35
2022-12-07T05:18:36.369Z,27.00
2022-12-07T05:19:08.893Z,29.45
2022-12-07T05:19:40.726Z,27.80
2022-12-07T05:20:12.846Z,31.08
2022-12-07T05:20:45.516Z,27.30
2022-12-07T05:21:17.612Z,29.52
2022-12-07T05:21:49.547Z,29.60
2022-12-07T05:22:21.406Z,31.20
2022-12-07T05:22:53.238Z,27.30
2022-12-07T05:23:25.401Z,30.35
2022-12-07T05:23:57.270Z,28.92
2022-12-07T05:24:29.134Z,28.90
2022-12-07T05:25:01.029Z,27.98
2022-12-07T05:25:32.836Z,31.60
2022-12-07T05:26:04.670Z,32.53
2022-12-07T05:26:36.797Z,32.45
2022-12-07T05:27:08.605Z,28.73
2022-12-07T05:27:40.473Z,27.95
2022-12-07T05:28:12.382Z,28.98
2022-12-07T05:28:44.275Z,25.25
2022-12-07T05:29:17.889Z,25.75
2022-12-07T05:29:51.745Z,28.02
2022-12-07T05:30:25.135Z,27.23
2022-12-07T05:30:59.807Z,29.95
2022-12-07T05:31:32.394Z,26.25
2022-12-07T05:32:04.881Z,35.08
2022-12-07T05:32:36.830Z,28.52
2022-12-07T05:33:08.760Z,30.02
2022-12-07T05:33:40.604Z,28.40
2022-12-07T05:34:12.903Z,27.33
2022-12-07T05:34:45.098Z,30.73
2022-12-07T05:35:17.550Z,27.58
2022-12-07T05:35:49.490Z,30.90
2022-12-07T05:36:21.853Z,26.77
2022-12-07T05:36:53.673Z,27.52
2022-12-07T05:37:25.781Z,26.73
2022-12-07T05:37:58.329Z,28.58
2022-12-07T05:38:30.174Z,27.33
2022-12-07T05:39:02.076Z,31.95
2022-12-07T05:39:33.907Z,26.17
2022-12-07T05:40:06.539Z,24.50
2022-12-07T05:40:38.653Z,26.42
2022-12-07T05:41:34.991Z,30.02
2022-12-07T05:42:15.762Z,26.15
2022-12-07T05:42:47.936Z,26.80
2022-12-07T05:43:19.764Z,30.85
2022-12-07T05:43:51.586Z,28.27
2022-12-07T05:44:23.464Z,26.50
2022-12-07T05:44:55.282Z,22.50
2022-12-07T05:45:27.194Z,28.98
2022-12-07T05:45:59.669Z,27.90
2022-12-07T05:46:31.853Z,30.58
2022-12-07T05:47:03.835Z,25.90
2022-12-07T05:47:35.671Z,28.15
2022-12-07T05:48:07.764Z,28.08
2022-12-07T05:48:39.576Z,27.00
2022-12-07T05:49:11.511Z,24.60
2022-12-07T05:49:43.724Z,24.50
2022-12-07T05:50:15.631Z,24.87
2022-12-07T05:50:50.339Z,29.83
2022-12-07T05:51:22.283Z,24.12
2022-12-07T05:51:54.102Z,28.92
2022-12-07T05:52:26.916Z,26.90
2022-12-07T05:52:58.747Z,30.48
2022-12-07T05:53:30.875Z,28.27
2022-12-07T05:54:02.815Z,26.80
2022-12-07T05:54:35.047Z,25.55
2022-12-07T05:55:07.999Z,28.27
2022-12-07T05:55:39.867Z,26.30
2022-12-07T05:56:11.749Z,26.60
2022-12-07T05:56:43.704Z,24.77
2022-12-07T05:57:15.553Z,23.23
2022-12-07T05:58:07.829Z,28.48
2022-12-07T05:58:58.838Z,25.83
2022-12-07T05:59:30.735Z,27.27
2022-12-07T06:00:04.948Z,26.92
2022-12-07T06:00:48.097Z,31.12
2022-12-07T06:01:23.111Z,27.77
2022-12-07T06:01:57.878Z,27.70
2022-12-07T06:02:29.926Z,30.58
2022-12-07T06:03:01.971Z,28.50
2022-12-07T06:03:33.974Z,31.15
2022-12-07T06:04:06.033Z,31.77
2022-12-07T06:04:40.759Z,27.25
2022-12-07T06:05:12.647Z,26.27
2022-12-07T06:05:44.576Z,26.45
2022-12-07T06:06:16.553Z,25.12
2022-12-07T06:06:48.756Z,26.12
2022-12-07T06:07:20.612Z,23.98
2022-12-07T06:07:52.510Z,26.02
2022-12-07T06:08:24.524Z,28.00
2022-12-07T06:08:56.494Z,27.20
2022-12-07T06:09:29.422Z,27.70
2022-12-07T06:10:01.633Z,25.92
2022-12-07T06:10:33.712Z,29.98
2022-12-07T06:11:25.974Z,27.73
2022-12-07T06:12:17.610Z,23.55
2022-12-07T06:13:00.164Z,31.52
2022-12-07T06:13:34.377Z,26.95
2022-12-07T06:14:06.852Z,31.83
2022-12-07T06:14:38.952Z,25.08
2022-12-07T06:15:11.361Z,30.23
2022-12-07T06:15:43.333Z,30.20
2022-12-07T06:16:15.243Z,25.35
2022-12-07T06:16:47.243Z,31.08
2022-12-07T06:17:19.649Z,28.62
2022-12-07T06:17:51.495Z,30.90
2022-12-07T06:18:23.368Z,31.27
2022-12-07T06:18:55.169Z,34.00
2022-12-07T06:19:27.479Z,26.90
2022-12-07T06:19:59.468Z,22.60
2022-12-07T06:20:31.575Z,35.30
2022-12-07T06:21:03.472Z,30.17
2022-12-07T06:21:35.412Z,30.90
2022-12-07T06:22:08.435Z,31.52
2022-12-07T06:22:40.543Z,32.72
2022-12-07T06:23:12.388Z,27.40
2022-12-07T06:23:44.206Z,28.83
2022-12-07T06:24:17.013Z,32.33
2022-12-07T06:24:49.019Z,30.55
2022-12-07T06:25:20.868Z,30.25
2022-12-07T06:25:52.713Z,35.05
2022-12-07T06:26:24.575Z,22.75
2022-12-07T06:26:56.376Z,33.97
2022-12-07T06:27:28.190Z,24.85
2022-12-07T06:28:00.353Z,30.67
2022-12-07T06:28:32.182Z,24.55
2022-12-07T06:29:04.054Z,24.33
2022-12-07T06:29:36.096Z,26.92
2022-12-07T06:30:09.541Z,25.35
2022-12-07T06:30:41.377Z,25.88
2022-12-07T06:31:15.750Z,25.20
2022-12-07T06:31:47.638Z,32.65
2022-12-07T06:32:19.576Z,24.63
2022-12-07T06:32:51.446Z,26.95
2022-12-07T06:33:23.655Z,31.87
2022-12-07T06:34:03.587Z,30.70
2022-12-07T06:34:35.614Z,30.67
2022-12-07T06:35:07.851Z,29.70
2022-12-07T06:35:39.694Z,25.12
2022-12-07T06:36:11.811Z,33.53
2022-12-07T06:36:44.123Z,27.27
2022-12-07T06:37:16.008Z,25.12
2022-12-07T06:37:48.319Z,29.02
2022-12-07T06:38:20.467Z,29.30
2022-12-07T06:38:53.000Z,30.12
2022-12-07T06:39:27.291Z,27.85
2022-12-07T06:39:59.216Z,28.12
2022-12-07T06:40:31.142Z,30.45
2022-12-07T06:41:03.044Z,26.98
2022-12-07T06:41:34.940Z,28.02
2022-12-07T06:42:06.780Z,28.17
2022-12-07T06:42:38.645Z,28.70
2022-12-07T06:43:10.536Z,26.67
2022-12-07T06:43:43.106Z,24.90
2022-12-07T06:44:15.523Z,25.62
2022-12-07T06:44:47.381Z,23.65
2022-12-07T06:45:19.204Z,27.87
2022-12-07T06:45:51.837Z,27.77
2022-12-07T06:46:24.288Z,27.20
2022-12-07T06:47:18.738Z,24.87
2022-12-07T06:47:49.420Z,25.08
2022-12-07T06:48:21.398Z,26.33
2022-12-07T06:48:53.431Z,26.20
2022-12-07T06:49:25.606Z,29.77
2022-12-07T06:49:57.451Z,27.58
2022-12-07T06:50:29.304Z,26.12
2022-12-07T06:51:01.265Z,31.42
2022-12-07T06:51:36.244Z,27.15
2022-12-07T06:52:08.059Z,28.40
2022-12-07T06:52:39.879Z,27.50
2022-12-07T06:53:11.709Z,32.15
2022-12-07T06:53:43.575Z,28.27
2022-12-07T06:54:18.499Z,30.75
2022-12-07T06:54:50.690Z,27.45
2022-12-07T06:55:22.528Z,29.05
2022-12-07T06:55:54.470Z,30.42
2022-12-07T06:56:26.293Z,46.30
2022-12-07T06:56:58.355Z,37.30
2022-12-07T06:57:30.217Z,41.47
2022-12-07T06:58:03.473Z,137.48
2022-12-07T06:58:35.416Z,130.82
2022-12-07T06:59:08.262Z,170.43
2022-12-07T06:59:40.076Z,129.77
2022-12-07T07:00:17.021Z,97.80
2022-12-07T07:00:53.459Z,48.80
2022-12-07T07:01:25.455Z,35.30
2022-12-07T07:01:57.342Z,31.33
2022-12-07T07:02:29.235Z,58.63
2022-12-07T07:03:01.435Z,67.57
2022-12-07T07:03:33.252Z,75.30
2022-12-07T07:04:05.873Z,73.32
2022-12-07T07:04:37.758Z,65.47
2022-12-07T07:05:09.724Z,63.97
2022-12-07T07:05:42.831Z,55.05
2022-12-07T07:06:15.076Z,43.63
2022-12-07T07:06:48.130Z,55.28
2022-12-07T07:07:19.970Z,57.30
2022-12-07T07:08:20.706Z,27.08
2022-12-07T07:08:43.823Z,45.12
2022-12-07T07:09:15.756Z,48.70
2022-12-07T07:09:47.594Z,46.80
2022-12-07T07:10:19.431Z,37.42
2022-12-07T07:10:51.839Z,40.08
2022-12-07T07:11:23.740Z,31.65
2022-12-07T07:11:55.823Z,35.28
2022-12-07T07:12:27.673Z,29.45
2022-12-07T07:12:59.571Z,34.60
2022-12-07T07:13:31.851Z,30.20
2022-12-07T07:14:03.702Z,32.45
2022-12-07T07:14:35.591Z,32.10
2022-12-07T07:15:08.211Z,35.35
2022-12-07T07:15:40.104Z,35.20
2022-12-07T07:16:13.567Z,34.03
2022-12-07T07:16:45.697Z,29.17
2022-12-07T07:17:17.573Z,36.03
2022-12-07T07:17:49.452Z,31.48
2022-12-07T07:18:21.380Z,31.58
2022-12-07T07:18:53.241Z,28.02
2022-12-07T07:19:25.082Z,29.65
2022-12-07T07:19:56.916Z,31.40
2022-12-07T07:20:28.887Z,30.17
2022-12-07T07:21:00.867Z,29.15
2022-12-07T07:21:32.998Z,26.35
2022-12-07T07:22:05.370Z,29.00
2022-12-07T07:22:37.276Z,31.67
2022-12-07T07:23:09.138Z,30.42
2022-12-07T07:23:41.037Z,28.98
2022-12-07T07:24:12.868Z,30.88
2022-12-07T07:24:44.697Z,32.45
2022-12-07T07:25:16.651Z,28.52
2022-12-07T07:25:49.318Z,29.30
2022-12-07T07:26:23.263Z,29.30
2022-12-07T07:26:55.771Z,27.48
2022-12-07T07:27:27.759Z,31.33
2022-12-07T07:27:59.755Z,34.55
2022-12-07T07:28:31.594Z,35.33
2022-12-07T07:29:03.468Z,35.05
2022-12-07T07:29:35.304Z,29.23
2022-12-07T07:30:07.953Z,32.70